sensor_id;sensor_type;location;lat;lon;timestamp;P1;durP1;ratioP1;P2;durP2;ratioP2
76727;SDS011;65652;53.132;18.026;2023-02-10T00:01:20;23.10;;;8.70;;
76727;SDS011;65652;53.132;18.026;2023-02-10T00:03:48;20.20;;;7.90;;
76727;SDS011;65652;53.132;18.026;2023-02-10T00:06:15;22.20;;;7.80;;
76727;SDS011;65652;53.132;18.026;2023-02-10T00:08:45;27.70;;;9.50;;
76727;SDS011;65652;53.132;18.026;2023-02-10T00:11:13;20.10;;;7.20;;
76727;SDS011;65652;53.132;18.026;2023-02-10T00:13:41;23.90;;;9.10;;
76727;SDS011;65652;53.132;18.026;2023-02-10T00:16:09;17.10;;;6.60;;
76727;SDS011;65652;53.132;18.026;2023-02-10T00:18:37;25.00;;;9.60;;
76727;SDS011;65652;53.132;18.026;2023-02-10T00:21:07;22.90;;;8.70;;
76727;SDS011;65652;53.132;18.026;2023-02-10T00:23:42;22.90;;;9.10;;
76727;SDS011;65652;53.132;18.026;2023-02-10T00:26:10;21.10;;;7.90;;
76727;SDS011;65652;53.132;18.026;2023-02-10T00:28:40;25.50;;;8.50;;
76727;SDS011;65652;53.132;18.026;2023-02-10T00:31:07;19.70;;;7.20;;
76727;SDS011;65652;53.132;18.026;2023-02-10T00:33:35;24.30;;;9.30;;
76727;SDS011;65652;53.132;18.026;2023-02-10T00:36:08;22.70;;;9.00;;
76727;SDS011;65652;53.132;18.026;2023-02-10T00:38:35;16.40;;;6.50;;
76727;SDS011;65652;53.132;18.026;2023-02-10T00:41:03;21.40;;;6.90;;
76727;SDS011;65652;53.132;18.026;2023-02-10T00:43:34;18.10;;;7.10;;
76727;SDS011;65652;53.132;18.026;2023-02-10T00:46:00;15.60;;;5.20;;
76727;SDS011;65652;53.132;18.026;2023-02-10T00:48:27;23.70;;;8.80;;
76727;SDS011;65652;53.132;18.026;2023-02-10T00:50:53;19.40;;;6.80;;
76727;SDS011;65652;53.132;18.026;2023-02-10T00:53:19;24.00;;;9.00;;
76727;SDS011;65652;53.132;18.026;2023-02-10T00:55:45;17.30;;;6.80;;
76727;SDS011;65652;53.132;18.026;2023-02-10T00:58:11;11.50;;;4.40;;
76727;SDS011;65652;53.132;18.026;2023-02-10T01:00:38;17.00;;;6.40;;
76727;SDS011;65652;53.132;18.026;2023-02-10T01:03:04;16.90;;;7.10;;
76727;SDS011;65652;53.132;18.026;2023-02-10T01:05:32;16.90;;;5.90;;
76727;SDS011;65652;53.132;18.026;2023-02-10T01:07:58;18.50;;;7.50;;
76727;SDS011;65652;53.132;18.026;2023-02-10T01:10:25;17.90;;;6.60;;
76727;SDS011;65652;53.132;18.026;2023-02-10T01:12:52;12.60;;;5.00;;
76727;SDS011;65652;53.132;18.026;2023-02-10T01:15:18;14.90;;;5.50;;
76727;SDS011;65652;53.132;18.026;2023-02-10T01:17:44;20.70;;;8.60;;
76727;SDS011;65652;53.132;18.026;2023-02-10T01:20:11;19.60;;;7.50;;
76727;SDS011;65652;53.132;18.026;2023-02-10T01:22:37;21.20;;;8.10;;
76727;SDS011;65652;53.132;18.026;2023-02-10T01:25:04;24.10;;;8.70;;
76727;SDS011;65652;53.132;18.026;2023-02-10T01:27:30;22.40;;;8.50;;
76727;SDS011;65652;53.132;18.026;2023-02-10T01:29:57;21.40;;;8.30;;
76727;SDS011;65652;53.132;18.026;2023-02-10T01:32:23;13.90;;;4.70;;
76727;SDS011;65652;53.132;18.026;2023-02-10T01:34:50;19.50;;;7.60;;
76727;SDS011;65652;53.132;18.026;2023-02-10T01:37:16;12.00;;;4.40;;
76727;SDS011;65652;53.132;18.026;2023-02-10T01:39:42;10.80;;;3.50;;
76727;SDS011;65652;53.132;18.026;2023-02-10T01:42:11;17.40;;;7.00;;
76727;SDS011;65652;53.132;18.026;2023-02-10T01:47:06;21.10;;;7.60;;
76727;SDS011;65652;53.132;18.026;2023-02-10T01:49:34;20.20;;;7.10;;
76727;SDS011;65652;53.132;18.026;2023-02-10T01:52:08;20.50;;;8.00;;
76727;SDS011;65652;53.132;18.026;2023-02-10T01:54:39;19.70;;;6.60;;
76727;SDS011;65652;53.132;18.026;2023-02-10T01:57:09;22.90;;;8.20;;
76727;SDS011;65652;53.132;18.026;2023-02-10T01:59:38;22.30;;;7.00;;
76727;SDS011;65652;53.132;18.026;2023-02-10T02:02:07;20.10;;;7.20;;
76727;SDS011;65652;53.132;18.026;2023-02-10T02:04:41;21.20;;;8.20;;
76727;SDS011;65652;53.132;18.026;2023-02-10T02:07:10;15.70;;;5.80;;
76727;SDS011;65652;53.132;18.026;2023-02-10T02:09:37;20.00;;;8.00;;
76727;SDS011;65652;53.132;18.026;2023-02-10T02:18:02;9.50;;;3.50;;
76727;SDS011;65652;53.132;18.026;2023-02-10T02:24:08;22.50;;;8.30;;
76727;SDS011;65652;53.132;18.026;2023-02-10T02:32:10;19.30;;;6.40;;
76727;SDS011;65652;53.132;18.026;2023-02-10T02:34:39;20.30;;;7.20;;
76727;SDS011;65652;53.132;18.026;2023-02-10T02:37:14;11.40;;;4.00;;
76727;SDS011;65652;53.132;18.026;2023-02-10T02:39:43;13.70;;;5.10;;
76727;SDS011;65652;53.132;18.026;2023-02-10T02:44:55;16.90;;;5.40;;
76727;SDS011;65652;53.132;18.026;2023-02-10T02:58:20;20.80;;;8.00;;
76727;SDS011;65652;53.132;18.026;2023-02-10T03:01:14;19.40;;;7.60;;
76727;SDS011;65652;53.132;18.026;2023-02-10T03:06:13;17.40;;;7.20;;
76727;SDS011;65652;53.132;18.026;2023-02-10T03:08:40;25.40;;;8.10;;
76727;SDS011;65652;53.132;18.026;2023-02-10T03:11:07;18.60;;;6.80;;
76727;SDS011;65652;53.132;18.026;2023-02-10T03:13:33;18.40;;;5.60;;
76727;SDS011;65652;53.132;18.026;2023-02-10T03:15:59;19.70;;;6.80;;
76727;SDS011;65652;53.132;18.026;2023-02-10T03:18:25;12.90;;;4.70;;
76727;SDS011;65652;53.132;18.026;2023-02-10T03:20:52;20.50;;;7.20;;
76727;SDS011;65652;53.132;18.026;2023-02-10T03:23:18;17.30;;;6.00;;
76727;SDS011;65652;53.132;18.026;2023-02-10T03:25:44;15.30;;;5.80;;
76727;SDS011;65652;53.132;18.026;2023-02-10T03:28:11;19.90;;;7.10;;
76727;SDS011;65652;53.132;18.026;2023-02-10T03:30:38;18.40;;;7.30;;
76727;SDS011;65652;53.132;18.026;2023-02-10T03:33:07;15.90;;;5.10;;
76727;SDS011;65652;53.132;18.026;2023-02-10T03:35:36;13.50;;;4.30;;
76727;SDS011;65652;53.132;18.026;2023-02-10T03:38:04;20.60;;;8.10;;
76727;SDS011;65652;53.132;18.026;2023-02-10T03:40:30;17.70;;;6.60;;
76727;SDS011;65652;53.132;18.026;2023-02-10T03:42:56;21.20;;;7.80;;
76727;SDS011;65652;53.132;18.026;2023-02-10T03:45:22;18.70;;;7.80;;
76727;SDS011;65652;53.132;18.026;2023-02-10T03:47:49;20.30;;;8.40;;
76727;SDS011;65652;53.132;18.026;2023-02-10T03:50:15;16.30;;;6.30;;
76727;SDS011;65652;53.132;18.026;2023-02-10T03:52:41;17.40;;;7.20;;
76727;SDS011;65652;53.132;18.026;2023-02-10T03:55:07;18.30;;;7.70;;
76727;SDS011;65652;53.132;18.026;2023-02-10T03:57:34;13.40;;;4.30;;
76727;SDS011;65652;53.132;18.026;2023-02-10T04:00:00;19.40;;;8.00;;
76727;SDS011;65652;53.132;18.026;2023-02-10T04:02:27;21.00;;;7.10;;
76727;SDS011;65652;53.132;18.026;2023-02-10T04:04:53;15.30;;;5.70;;
76727;SDS011;65652;53.132;18.026;2023-02-10T04:07:19;12.20;;;5.40;;
76727;SDS011;65652;53.132;18.026;2023-02-10T04:09:45;15.70;;;6.60;;
76727;SDS011;65652;53.132;18.026;2023-02-10T04:12:11;19.50;;;6.90;;
76727;SDS011;65652;53.132;18.026;2023-02-10T04:14:37;21.70;;;8.00;;
76727;SDS011;65652;53.132;18.026;2023-02-10T04:17:04;21.30;;;7.90;;
76727;SDS011;65652;53.132;18.026;2023-02-10T04:19:30;14.00;;;5.70;;
76727;SDS011;65652;53.132;18.026;2023-02-10T04:21:56;17.60;;;5.80;;
76727;SDS011;65652;53.132;18.026;2023-02-10T04:24:22;22.40;;;8.10;;
76727;SDS011;65652;53.132;18.026;2023-02-10T04:26:48;16.80;;;6.70;;
76727;SDS011;65652;53.132;18.026;2023-02-10T04:29:14;24.70;;;8.50;;
76727;SDS011;65652;53.132;18.026;2023-02-10T04:31:40;21.70;;;7.60;;
76727;SDS011;65652;53.132;18.026;2023-02-10T04:34:07;15.30;;;4.70;;
76727;SDS011;65652;53.132;18.026;2023-02-10T04:36:33;14.60;;;6.30;;
76727;SDS011;65652;53.132;18.026;2023-02-10T04:38:59;18.40;;;7.40;;
76727;SDS011;65652;53.132;18.026;2023-02-10T04:41:25;19.60;;;6.70;;
76727;SDS011;65652;53.132;18.026;2023-02-10T04:43:52;13.00;;;4.70;;
76727;SDS011;65652;53.132;18.026;2023-02-10T04:46:18;25.40;;;8.40;;
76727;SDS011;65652;53.132;18.026;2023-02-10T04:48:44;16.60;;;6.50;;
76727;SDS011;65652;53.132;18.026;2023-02-10T04:51:11;14.10;;;5.50;;
76727;SDS011;65652;53.132;18.026;2023-02-10T04:53:38;16.30;;;5.70;;
76727;SDS011;65652;53.132;18.026;2023-02-10T04:56:06;21.40;;;8.00;;
76727;SDS011;65652;53.132;18.026;2023-02-10T04:58:33;19.00;;;7.80;;
76727;SDS011;65652;53.132;18.026;2023-02-10T05:00:59;21.60;;;7.10;;
76727;SDS011;65652;53.132;18.026;2023-02-10T05:03:25;21.90;;;8.60;;
76727;SDS011;65652;53.132;18.026;2023-02-10T05:05:51;19.30;;;7.10;;
76727;SDS011;65652;53.132;18.026;2023-02-10T05:08:18;18.70;;;6.60;;
76727;SDS011;65652;53.132;18.026;2023-02-10T05:10:50;16.70;;;7.00;;
76727;SDS011;65652;53.132;18.026;2023-02-10T05:13:18;14.90;;;5.90;;
76727;SDS011;65652;53.132;18.026;2023-02-10T05:15:44;21.60;;;8.20;;
76727;SDS011;65652;53.132;18.026;2023-02-10T05:18:12;25.80;;;9.00;;
76727;SDS011;65652;53.132;18.026;2023-02-10T05:20:38;21.90;;;8.30;;
76727;SDS011;65652;53.132;18.026;2023-02-10T05:23:04;21.40;;;8.30;;
76727;SDS011;65652;53.132;18.026;2023-02-10T05:25:31;18.00;;;7.90;;
76727;SDS011;65652;53.132;18.026;2023-02-10T05:27:57;17.70;;;6.50;;
76727;SDS011;65652;53.132;18.026;2023-02-10T05:30:23;19.20;;;7.20;;
76727;SDS011;65652;53.132;18.026;2023-02-10T05:32:49;23.50;;;8.10;;
76727;SDS011;65652;53.132;18.026;2023-02-10T05:35:15;18.80;;;6.80;;
76727;SDS011;65652;53.132;18.026;2023-02-10T05:37:42;24.40;;;9.10;;
76727;SDS011;65652;53.132;18.026;2023-02-10T05:40:08;22.50;;;9.00;;
76727;SDS011;65652;53.132;18.026;2023-02-10T05:42:36;13.40;;;4.70;;
76727;SDS011;65652;53.132;18.026;2023-02-10T05:45:02;22.70;;;8.30;;
76727;SDS011;65652;53.132;18.026;2023-02-10T05:47:28;22.40;;;9.10;;
76727;SDS011;65652;53.132;18.026;2023-02-10T05:49:54;23.10;;;9.30;;
76727;SDS011;65652;53.132;18.026;2023-02-10T05:52:21;18.40;;;6.50;;
76727;SDS011;65652;53.132;18.026;2023-02-10T05:54:47;25.60;;;9.70;;
76727;SDS011;65652;53.132;18.026;2023-02-10T05:57:13;13.90;;;5.70;;
76727;SDS011;65652;53.132;18.026;2023-02-10T05:59:39;18.30;;;7.90;;
76727;SDS011;65652;53.132;18.026;2023-02-10T06:02:07;18.30;;;7.40;;
76727;SDS011;65652;53.132;18.026;2023-02-10T06:04:33;17.00;;;6.40;;
76727;SDS011;65652;53.132;18.026;2023-02-10T06:06:59;19.50;;;7.60;;
76727;SDS011;65652;53.132;18.026;2023-02-10T06:09:25;20.70;;;8.40;;
76727;SDS011;65652;53.132;18.026;2023-02-10T06:11:53;10.10;;;4.00;;
76727;SDS011;65652;53.132;18.026;2023-02-10T06:14:20;20.90;;;8.60;;
76727;SDS011;65652;53.132;18.026;2023-02-10T06:16:46;17.50;;;6.60;;
76727;SDS011;65652;53.132;18.026;2023-02-10T06:19:12;27.20;;;9.10;;
76727;SDS011;65652;53.132;18.026;2023-02-10T06:21:38;27.20;;;9.80;;
76727;SDS011;65652;53.132;18.026;2023-02-10T06:24:05;23.80;;;8.50;;
76727;SDS011;65652;53.132;18.026;2023-02-10T06:26:31;23.40;;;9.10;;
76727;SDS011;65652;53.132;18.026;2023-02-10T06:28:57;23.30;;;9.20;;
76727;SDS011;65652;53.132;18.026;2023-02-10T06:31:23;24.10;;;9.30;;
76727;SDS011;65652;53.132;18.026;2023-02-10T06:33:51;22.90;;;8.50;;
76727;SDS011;65652;53.132;18.026;2023-02-10T06:36:17;21.20;;;8.00;;
76727;SDS011;65652;53.132;18.026;2023-02-10T06:38:43;21.60;;;8.40;;
76727;SDS011;65652;53.132;18.026;2023-02-10T06:41:09;24.40;;;9.30;;
76727;SDS011;65652;53.132;18.026;2023-02-10T06:43:36;19.50;;;7.90;;
76727;SDS011;65652;53.132;18.026;2023-02-10T06:46:02;26.90;;;10.30;;
76727;SDS011;65652;53.132;18.026;2023-02-10T06:48:28;24.50;;;9.30;;
76727;SDS011;65652;53.132;18.026;2023-02-10T06:50:54;21.70;;;8.00;;
76727;SDS011;65652;53.132;18.026;2023-02-10T06:53:21;21.90;;;8.40;;
76727;SDS011;65652;53.132;18.026;2023-02-10T06:55:47;27.90;;;8.50;;
76727;SDS011;65652;53.132;18.026;2023-02-10T06:58:14;24.20;;;8.70;;
76727;SDS011;65652;53.132;18.026;2023-02-10T07:00:41;28.60;;;8.40;;
76727;SDS011;65652;53.132;18.026;2023-02-10T07:03:07;23.10;;;9.10;;
76727;SDS011;65652;53.132;18.026;2023-02-10T07:05:34;16.70;;;6.00;;
76727;SDS011;65652;53.132;18.026;2023-02-10T07:08:01;20.20;;;7.50;;
76727;SDS011;65652;53.132;18.026;2023-02-10T07:10:30;26.30;;;9.80;;
76727;SDS011;65652;53.132;18.026;2023-02-10T07:12:57;22.90;;;8.50;;
76727;SDS011;65652;53.132;18.026;2023-02-10T07:15:23;15.90;;;6.60;;
76727;SDS011;65652;53.132;18.026;2023-02-10T07:17:50;18.40;;;7.80;;
76727;SDS011;65652;53.132;18.026;2023-02-10T07:20:20;26.90;;;10.30;;
76727;SDS011;65652;53.132;18.026;2023-02-10T07:22:47;23.80;;;8.90;;
76727;SDS011;65652;53.132;18.026;2023-02-10T07:25:14;25.60;;;9.90;;
76727;SDS011;65652;53.132;18.026;2023-02-10T07:27:40;25.10;;;9.10;;
76727;SDS011;65652;53.132;18.026;2023-02-10T07:30:06;23.10;;;9.20;;
76727;SDS011;65652;53.132;18.026;2023-02-10T07:32:33;24.00;;;9.30;;
76727;SDS011;65652;53.132;18.026;2023-02-10T07:34:59;23.40;;;8.70;;
76727;SDS011;65652;53.132;18.026;2023-02-10T07:37:25;18.50;;;5.90;;
76727;SDS011;65652;53.132;18.026;2023-02-10T07:39:52;16.30;;;6.20;;
76727;SDS011;65652;53.132;18.026;2023-02-10T07:42:18;25.50;;;10.50;;
76727;SDS011;65652;53.132;18.026;2023-02-10T07:45:10;22.90;;;8.20;;
76727;SDS011;65652;53.132;18.026;2023-02-10T07:47:36;24.40;;;9.30;;
76727;SDS011;65652;53.132;18.026;2023-02-10T07:50:03;24.50;;;9.20;;
76727;SDS011;65652;53.132;18.026;2023-02-10T07:52:29;21.60;;;8.20;;
76727;SDS011;65652;53.132;18.026;2023-02-10T07:54:55;20.10;;;6.30;;
76727;SDS011;65652;53.132;18.026;2023-02-10T07:57:22;26.00;;;9.90;;
76727;SDS011;65652;53.132;18.026;2023-02-10T07:59:48;22.30;;;8.40;;
76727;SDS011;65652;53.132;18.026;2023-02-10T08:02:14;28.70;;;10.30;;
76727;SDS011;65652;53.132;18.026;2023-02-10T08:04:41;19.10;;;8.70;;
76727;SDS011;65652;53.132;18.026;2023-02-10T08:07:07;22.10;;;7.60;;
76727;SDS011;65652;53.132;18.026;2023-02-10T08:09:33;31.20;;;10.50;;
76727;SDS011;65652;53.132;18.026;2023-02-10T08:11:59;32.60;;;10.60;;
76727;SDS011;65652;53.132;18.026;2023-02-10T08:14:25;35.40;;;11.30;;
76727;SDS011;65652;53.132;18.026;2023-02-10T08:16:52;33.30;;;9.70;;
76727;SDS011;65652;53.132;18.026;2023-02-10T08:19:18;23.20;;;8.70;;
76727;SDS011;65652;53.132;18.026;2023-02-10T08:21:44;20.20;;;7.10;;
76727;SDS011;65652;53.132;18.026;2023-02-10T08:24:11;28.90;;;10.40;;
76727;SDS011;65652;53.132;18.026;2023-02-10T08:26:37;18.60;;;7.50;;
76727;SDS011;65652;53.132;18.026;2023-02-10T08:29:03;19.20;;;7.50;;
76727;SDS011;65652;53.132;18.026;2023-02-10T08:31:29;27.20;;;10.10;;
76727;SDS011;65652;53.132;18.026;2023-02-10T08:33:56;28.40;;;9.20;;
76727;SDS011;65652;53.132;18.026;2023-02-10T08:36:22;22.90;;;9.60;;
76727;SDS011;65652;53.132;18.026;2023-02-10T08:38:49;30.40;;;11.40;;
76727;SDS011;65652;53.132;18.026;2023-02-10T08:41:17;22.60;;;7.90;;
76727;SDS011;65652;53.132;18.026;2023-02-10T08:43:44;24.10;;;7.90;;
76727;SDS011;65652;53.132;18.026;2023-02-10T08:46:10;19.60;;;7.30;;
76727;SDS011;65652;53.132;18.026;2023-02-10T08:48:37;24.70;;;8.60;;
76727;SDS011;65652;53.132;18.026;2023-02-10T08:51:07;23.70;;;9.20;;
76727;SDS011;65652;53.132;18.026;2023-02-10T08:53:35;23.40;;;8.60;;
76727;SDS011;65652;53.132;18.026;2023-02-10T08:56:03;32.90;;;10.30;;
76727;SDS011;65652;53.132;18.026;2023-02-10T08:58:32;31.00;;;10.00;;
76727;SDS011;65652;53.132;18.026;2023-02-10T09:00:58;33.00;;;11.00;;
76727;SDS011;65652;53.132;18.026;2023-02-10T09:03:25;19.00;;;7.90;;
76727;SDS011;65652;53.132;18.026;2023-02-10T09:05:52;31.10;;;10.70;;
76727;SDS011;65652;53.132;18.026;2023-02-10T09:08:19;27.50;;;9.60;;
76727;SDS011;65652;53.132;18.026;2023-02-10T09:10:45;32.80;;;9.70;;
76727;SDS011;65652;53.132;18.026;2023-02-10T09:13:12;31.00;;;10.70;;
76727;SDS011;65652;53.132;18.026;2023-02-10T09:18:06;29.80;;;11.90;;
76727;SDS011;65652;53.132;18.026;2023-02-10T09:20:34;30.40;;;11.10;;
76727;SDS011;65652;53.132;18.026;2023-02-10T09:23:00;33.80;;;11.30;;
76727;SDS011;65652;53.132;18.026;2023-02-10T09:25:27;22.10;;;8.30;;
76727;SDS011;65652;53.132;18.026;2023-02-10T09:27:53;25.30;;;10.30;;
76727;SDS011;65652;53.132;18.026;2023-02-10T09:30:23;27.40;;;10.80;;
76727;SDS011;65652;53.132;18.026;2023-02-10T09:32:50;30.10;;;12.40;;
76727;SDS011;65652;53.132;18.026;2023-02-10T09:35:17;17.20;;;5.60;;
76727;SDS011;65652;53.132;18.026;2023-02-10T09:37:43;27.10;;;8.40;;
76727;SDS011;65652;53.132;18.026;2023-02-10T09:40:47;32.40;;;11.20;;
76727;SDS011;65652;53.132;18.026;2023-02-10T09:46:03;38.30;;;12.00;;
76727;SDS011;65652;53.132;18.026;2023-02-10T09:54:22;36.50;;;12.20;;
76727;SDS011;65652;53.132;18.026;2023-02-10T09:56:49;27.10;;;9.80;;
76727;SDS011;65652;53.132;18.026;2023-02-10T09:59:16;29.10;;;10.70;;
76727;SDS011;65652;53.132;18.026;2023-02-10T10:01:49;23.70;;;9.40;;
76727;SDS011;65652;53.132;18.026;2023-02-10T10:04:20;23.60;;;9.00;;
76727;SDS011;65652;53.132;18.026;2023-02-10T10:06:55;28.50;;;10.10;;
76727;SDS011;65652;53.132;18.026;2023-02-10T10:09:51;30.70;;;9.60;;
76727;SDS011;65652;53.132;18.026;2023-02-10T10:12:31;28.90;;;10.20;;
76727;SDS011;65652;53.132;18.026;2023-02-10T10:14:57;30.10;;;10.50;;
76727;SDS011;65652;53.132;18.026;2023-02-10T10:25:32;27.60;;;11.00;;
76727;SDS011;65652;53.132;18.026;2023-02-10T10:28:25;27.40;;;9.90;;
76727;SDS011;65652;53.132;18.026;2023-02-10T10:31:08;32.40;;;11.20;;
76727;SDS011;65652;53.132;18.026;2023-02-10T10:36:20;31.60;;;9.90;;
76727;SDS011;65652;53.132;18.026;2023-02-10T10:38:50;30.80;;;10.20;;
76727;SDS011;65652;53.132;18.026;2023-02-10T10:43:54;25.50;;;7.70;;
76727;SDS011;65652;53.132;18.026;2023-02-10T10:49:37;30.90;;;10.40;;
76727;SDS011;65652;53.132;18.026;2023-02-10T10:52:23;38.80;;;13.40;;
76727;SDS011;65652;53.132;18.026;2023-02-10T10:54:57;24.50;;;8.40;;
76727;SDS011;65652;53.132;18.026;2023-02-10T10:57:25;26.20;;;10.30;;
76727;SDS011;65652;53.132;18.026;2023-02-10T11:00:03;28.30;;;9.50;;
76727;SDS011;65652;53.132;18.026;2023-02-10T11:02:50;21.40;;;7.60;;
76727;SDS011;65652;53.132;18.026;2023-02-10T11:05:18;31.90;;;8.40;;
76727;SDS011;65652;53.132;18.026;2023-02-10T11:10:20;21.30;;;7.30;;
76727;SDS011;65652;53.132;18.026;2023-02-10T11:12:50;23.90;;;9.00;;
76727;SDS011;65652;53.132;18.026;2023-02-10T11:17:52;29.80;;;11.10;;
76727;SDS011;65652;53.132;18.026;2023-02-10T11:22:56;35.40;;;11.20;;
76727;SDS011;65652;53.132;18.026;2023-02-10T11:25:37;37.30;;;13.30;;
76727;SDS011;65652;53.132;18.026;2023-02-10T11:28:05;57.40;;;19.40;;
76727;SDS011;65652;53.132;18.026;2023-02-10T11:30:35;39.10;;;13.50;;
76727;SDS011;65652;53.132;18.026;2023-02-10T11:33:04;39.20;;;12.80;;
76727;SDS011;65652;53.132;18.026;2023-02-10T11:35:46;41.70;;;14.80;;
76727;SDS011;65652;53.132;18.026;2023-02-10T11:38:19;25.00;;;9.00;;
76727;SDS011;65652;53.132;18.026;2023-02-10T11:41:06;38.00;;;14.30;;
76727;SDS011;65652;53.132;18.026;2023-02-10T11:43:42;19.30;;;7.00;;
76727;SDS011;65652;53.132;18.026;2023-02-10T11:46:24;30.20;;;11.10;;
76727;SDS011;65652;53.132;18.026;2023-02-10T11:48:59;37.10;;;9.80;;
76727;SDS011;65652;53.132;18.026;2023-02-10T11:51:28;40.60;;;15.20;;
76727;SDS011;65652;53.132;18.026;2023-02-10T11:53:56;42.40;;;15.00;;
76727;SDS011;65652;53.132;18.026;2023-02-10T12:07:37;35.70;;;12.30;;
76727;SDS011;65652;53.132;18.026;2023-02-10T12:18:33;42.90;;;14.70;;
76727;SDS011;65652;53.132;18.026;2023-02-10T12:26:26;40.90;;;16.20;;
76727;SDS011;65652;53.132;18.026;2023-02-10T12:32:13;33.70;;;12.50;;
76727;SDS011;65652;53.132;18.026;2023-02-10T12:48:32;34.50;;;11.60;;
76727;SDS011;65652;53.132;18.026;2023-02-10T12:53:28;27.40;;;9.90;;
76727;SDS011;65652;53.132;18.026;2023-02-10T12:58:40;21.10;;;7.70;;
76727;SDS011;65652;53.132;18.026;2023-02-10T13:01:15;24.20;;;9.10;;
76727;SDS011;65652;53.132;18.026;2023-02-10T13:03:47;40.10;;;13.50;;
76727;SDS011;65652;53.132;18.026;2023-02-10T13:06:36;44.20;;;16.20;;
76727;SDS011;65652;53.132;18.026;2023-02-10T13:09:11;35.60;;;13.80;;
76727;SDS011;65652;53.132;18.026;2023-02-10T13:14:29;33.90;;;9.60;;
76727;SDS011;65652;53.132;18.026;2023-02-10T13:16:57;35.00;;;12.30;;
76727;SDS011;65652;53.132;18.026;2023-02-10T13:19:37;35.10;;;12.00;;
76727;SDS011;65652;53.132;18.026;2023-02-10T13:25:07;38.60;;;14.90;;
76727;SDS011;65652;53.132;18.026;2023-02-10T13:27:49;27.70;;;11.10;;
76727;SDS011;65652;53.132;18.026;2023-02-10T13:35:56;20.40;;;8.40;;
76727;SDS011;65652;53.132;18.026;2023-02-10T13:38:23;46.70;;;20.70;;
76727;SDS011;65652;53.132;18.026;2023-02-10T13:40:56;26.00;;;11.30;;
76727;SDS011;65652;53.132;18.026;2023-02-10T13:43:46;27.90;;;11.50;;
76727;SDS011;65652;53.132;18.026;2023-02-10T13:46:22;34.80;;;12.00;;
76727;SDS011;65652;53.132;18.026;2023-02-10T13:48:53;32.10;;;10.20;;
76727;SDS011;65652;53.132;18.026;2023-02-10T13:51:32;51.00;;;17.20;;
76727;SDS011;65652;53.132;18.026;2023-02-10T13:54:02;45.80;;;16.20;;
76727;SDS011;65652;53.132;18.026;2023-02-10T13:56:30;43.40;;;16.40;;
76727;SDS011;65652;53.132;18.026;2023-02-10T13:58:59;51.00;;;19.00;;
76727;SDS011;65652;53.132;18.026;2023-02-10T14:04:38;37.90;;;14.50;;
76727;SDS011;65652;53.132;18.026;2023-02-10T14:06:56;35.50;;;12.50;;
76727;SDS011;65652;53.132;18.026;2023-02-10T14:11:55;40.20;;;14.10;;
76727;SDS011;65652;53.132;18.026;2023-02-10T14:19:40;37.80;;;14.20;;
76727;SDS011;65652;53.132;18.026;2023-02-10T14:24:48;42.20;;;14.90;;
76727;SDS011;65652;53.132;18.026;2023-02-10T14:27:14;26.80;;;9.90;;
76727;SDS011;65652;53.132;18.026;2023-02-10T14:29:47;27.90;;;9.80;;
76727;SDS011;65652;53.132;18.026;2023-02-10T14:32:16;42.90;;;15.60;;
76727;SDS011;65652;53.132;18.026;2023-02-10T14:34:55;41.30;;;15.20;;
76727;SDS011;65652;53.132;18.026;2023-02-10T14:37:23;32.40;;;12.30;;
76727;SDS011;65652;53.132;18.026;2023-02-10T14:39:54;40.20;;;13.60;;
76727;SDS011;65652;53.132;18.026;2023-02-10T14:42:21;30.90;;;11.90;;
76727;SDS011;65652;53.132;18.026;2023-02-10T14:44:50;23.90;;;6.20;;
76727;SDS011;65652;53.132;18.026;2023-02-10T14:47:20;42.80;;;15.90;;
76727;SDS011;65652;53.132;18.026;2023-02-10T14:49:53;45.60;;;14.30;;
76727;SDS011;65652;53.132;18.026;2023-02-10T14:54:49;38.50;;;15.30;;
76727;SDS011;65652;53.132;18.026;2023-02-10T14:57:16;38.20;;;11.80;;
76727;SDS011;65652;53.132;18.026;2023-02-10T14:59:51;38.10;;;12.80;;
76727;SDS011;65652;53.132;18.026;2023-02-10T15:02:20;35.20;;;11.00;;
76727;SDS011;65652;53.132;18.026;2023-02-10T15:04:49;44.00;;;14.40;;
76727;SDS011;65652;53.132;18.026;2023-02-10T15:07:23;32.10;;;11.50;;
76727;SDS011;65652;53.132;18.026;2023-02-10T15:10:06;30.40;;;9.70;;
76727;SDS011;65652;53.132;18.026;2023-02-10T15:12:52;42.00;;;13.50;;
76727;SDS011;65652;53.132;18.026;2023-02-10T15:15:26;36.50;;;14.60;;
76727;SDS011;65652;53.132;18.026;2023-02-10T15:18:02;40.70;;;14.60;;
76727;SDS011;65652;53.132;18.026;2023-02-10T15:20:33;93.20;;;21.90;;
76727;SDS011;65652;53.132;18.026;2023-02-10T15:27:56;33.10;;;12.60;;
76727;SDS011;65652;53.132;18.026;2023-02-10T15:30:25;38.50;;;12.90;;
76727;SDS011;65652;53.132;18.026;2023-02-10T15:32:54;33.10;;;13.10;;
76727;SDS011;65652;53.132;18.026;2023-02-10T15:35:22;38.40;;;14.10;;
76727;SDS011;65652;53.132;18.026;2023-02-10T15:37:50;37.00;;;13.00;;
76727;SDS011;65652;53.132;18.026;2023-02-10T15:40:24;33.70;;;11.40;;
76727;SDS011;65652;53.132;18.026;2023-02-10T15:43:02;36.80;;;14.00;;
76727;SDS011;65652;53.132;18.026;2023-02-10T15:45:30;36.50;;;14.80;;
76727;SDS011;65652;53.132;18.026;2023-02-10T15:48:01;39.40;;;14.20;;
76727;SDS011;65652;53.132;18.026;2023-02-10T15:50:28;40.00;;;13.90;;
76727;SDS011;65652;53.132;18.026;2023-02-10T15:52:55;35.80;;;14.00;;
76727;SDS011;65652;53.132;18.026;2023-02-10T15:55:30;29.20;;;9.00;;
76727;SDS011;65652;53.132;18.026;2023-02-10T15:58:00;39.10;;;13.30;;
76727;SDS011;65652;53.132;18.026;2023-02-10T16:00:30;43.90;;;15.70;;
76727;SDS011;65652;53.132;18.026;2023-02-10T16:03:01;30.90;;;12.10;;
76727;SDS011;65652;53.132;18.026;2023-02-10T16:05:28;30.40;;;10.40;;
76727;SDS011;65652;53.132;18.026;2023-02-10T16:08:01;37.00;;;12.60;;
76727;SDS011;65652;53.132;18.026;2023-02-10T16:10:30;27.40;;;10.60;;
76727;SDS011;65652;53.132;18.026;2023-02-10T16:12:56;24.70;;;9.60;;
76727;SDS011;65652;53.132;18.026;2023-02-10T16:15:23;35.30;;;11.60;;
76727;SDS011;65652;53.132;18.026;2023-02-10T16:17:52;20.30;;;7.00;;
76727;SDS011;65652;53.132;18.026;2023-02-10T16:20:23;34.90;;;12.00;;
76727;SDS011;65652;53.132;18.026;2023-02-10T16:22:51;33.20;;;11.30;;
76727;SDS011;65652;53.132;18.026;2023-02-10T16:25:18;36.90;;;12.90;;
76727;SDS011;65652;53.132;18.026;2023-02-10T16:27:46;24.10;;;9.80;;
76727;SDS011;65652;53.132;18.026;2023-02-10T16:30:13;37.00;;;14.00;;
76727;SDS011;65652;53.132;18.026;2023-02-10T16:32:42;42.00;;;14.80;;
76727;SDS011;65652;53.132;18.026;2023-02-10T16:35:09;44.10;;;15.90;;
76727;SDS011;65652;53.132;18.026;2023-02-10T16:37:36;36.40;;;12.60;;
76727;SDS011;65652;53.132;18.026;2023-02-10T16:40:02;32.20;;;12.10;;
76727;SDS011;65652;53.132;18.026;2023-02-10T16:42:29;35.60;;;12.80;;
76727;SDS011;65652;53.132;18.026;2023-02-10T16:44:55;35.60;;;12.90;;
76727;SDS011;65652;53.132;18.026;2023-02-10T16:47:21;40.70;;;14.00;;
76727;SDS011;65652;53.132;18.026;2023-02-10T16:49:48;42.00;;;15.60;;
76727;SDS011;65652;53.132;18.026;2023-02-10T16:52:15;42.40;;;14.40;;
76727;SDS011;65652;53.132;18.026;2023-02-10T16:54:46;29.00;;;10.90;;